sensor_id;sensor_type;location;lat;lon;timestamp;pressure;altitude;pressure_sealevel;temperature;humidity
51229;BME280;37304;52.216;6.874;2022-11-20T00:04:34;101066.63;;;-3.28;100.00
51229;BME280;37304;52.216;6.874;2022-11-20T00:09:34;101055.19;;;-3.38;100.00
51229;BME280;37304;52.216;6.874;2022-11-20T00:14:35;101074.69;;;-3.37;100.00
51229;BME280;37304;52.216;6.874;2022-11-20T00:19:35;101070.06;;;-3.46;100.00
51229;BME280;37304;52.216;6.874;2022-11-20T00:24:35;101061.19;;;-3.56;100.00
51229;BME280;37304;52.216;6.874;2022-11-20T00:29:36;101071.94;;;-3.61;100.00
51229;BME280;37304;52.216;6.874;2022-11-20T00:34:36;101057.13;;;-3.70;100.00
51229;BME280;37304;52.216;6.874;2022-11-20T00:39:36;101049.09;;;-3.80;100.00
51229;BME280;37304;52.216;6.874;2022-11-20T00:44:36;101040.16;;;-3.71;100.00
51229;BME280;37304;52.216;6.874;2022-11-20T00:49:37;101036.13;;;-3.86;100.00
51229;BME280;37304;52.216;6.874;2022-11-20T00:54:37;101041.81;;;-3.91;100.00
51229;BME280;37304;52.216;6.874;2022-11-20T00:59:37;101043.28;;;-3.97;100.00
51229;BME280;37304;52.216;6.874;2022-11-20T01:04:38;101037.03;;;-4.03;100.00
51229;BME280;37304;52.216;6.874;2022-11-20T01:09:38;101040.25;;;-4.07;100.00
51229;BME280;37304;52.216;6.874;2022-11-20T01:14:38;101034.75;;;-4.17;100.00
51229;BME280;37304;52.216;6.874;2022-11-20T01:19:39;101026.63;;;-4.28;100.00
51229;BME280;37304;52.216;6.874;2022-11-20T01:24:39;101021.81;;;-4.40;100.00
51229;BME280;37304;52.216;6.874;2022-11-20T01:29:39;101006.47;;;-4.43;100.00
51229;BME280;37304;52.216;6.874;2022-11-20T01:34:39;101012.13;;;-4.48;100.00
51229;BME280;37304;52.216;6.874;2022-11-20T01:39:40;101010.09;;;-4.56;100.00
51229;BME280;37304;52.216;6.874;2022-11-20T01:49:50;101018.38;;;-4.60;100.00
51229;BME280;37304;52.216;6.874;2022-11-20T01:54:56;101009.50;;;-4.50;100.00
51229;BME280;37304;52.216;6.874;2022-11-20T02:00:10;101011.03;;;-4.35;100.00
51229;BME280;37304;52.216;6.874;2022-11-20T02:05:21;101006.75;;;-4.36;100.00
51229;BME280;37304;52.216;6.874;2022-11-20T02:10:22;100997.06;;;-4.45;100.00
51229;BME280;37304;52.216;6.874;2022-11-20T02:15:23;100999.22;;;-4.53;100.00
51229;BME280;37304;52.216;6.874;2022-11-20T02:20:24;100983.94;;;-4.73;100.00
51229;BME280;37304;52.216;6.874;2022-11-20T02:25:25;100977.31;;;-4.69;100.00
51229;BME280;37304;52.216;6.874;2022-11-20T02:30:26;100972.19;;;-4.71;100.00
51229;BME280;37304;52.216;6.874;2022-11-20T02:40:27;100977.03;;;-4.93;100.00
51229;BME280;37304;52.216;6.874;2022-11-20T02:45:27;100974.81;;;-5.04;100.00
51229;BME280;37304;52.216;6.874;2022-11-20T02:50:27;100972.16;;;-5.07;100.00
51229;BME280;37304;52.216;6.874;2022-11-20T02:55:28;100969.84;;;-5.02;100.00
51229;BME280;37304;52.216;6.874;2022-11-20T03:00:28;100969.88;;;-4.84;100.00
51229;BME280;37304;52.216;6.874;2022-11-20T03:05:29;100962.28;;;-4.84;100.00
51229;BME280;37304;52.216;6.874;2022-11-20T03:10:29;100964.03;;;-5.00;100.00
51229;BME280;37304;52.216;6.874;2022-11-20T03:15:29;100951.50;;;-5.15;100.00
51229;BME280;37304;52.216;6.874;2022-11-20T03:20:29;100956.44;;;-5.18;100.00
51229;BME280;37304;52.216;6.874;2022-11-20T03:25:30;100961.50;;;-5.18;100.00
51229;BME280;37304;52.216;6.874;2022-11-20T03:30:30;100959.53;;;-5.23;100.00
51229;BME280;37304;52.216;6.874;2022-11-20T03:35:30;100952.16;;;-5.35;100.00
51229;BME280;37304;52.216;6.874;2022-11-20T03:40:31;100964.69;;;-5.38;100.00
51229;BME280;37304;52.216;6.874;2022-11-20T03:45:31;100959.47;;;-5.42;100.00
51229;BME280;37304;52.216;6.874;2022-11-20T03:50:31;100963.19;;;-5.35;100.00
51229;BME280;37304;52.216;6.874;2022-11-20T03:55:32;100964.00;;;-5.52;100.00
51229;BME280;37304;52.216;6.874;2022-11-20T04:00:32;100953.25;;;-5.48;100.00
51229;BME280;37304;52.216;6.874;2022-11-20T04:05:33;100951.22;;;-5.21;100.00
51229;BME280;37304;52.216;6.874;2022-11-20T04:10:34;100938.56;;;-5.37;100.00
51229;BME280;37304;52.216;6.874;2022-11-20T04:15:34;100933.59;;;-5.36;100.00
51229;BME280;37304;52.216;6.874;2022-11-20T04:20:35;100933.66;;;-5.34;100.00
51229;BME280;37304;52.216;6.874;2022-11-20T04:25:35;100928.06;;;-5.45;100.00
51229;BME280;37304;52.216;6.874;2022-11-20T04:30:35;100921.75;;;-5.53;100.00
51229;BME280;37304;52.216;6.874;2022-11-20T04:35:36;100916.94;;;-5.65;100.00
51229;BME280;37304;52.216;6.874;2022-11-20T04:40:40;100915.25;;;-5.65;100.00
51229;BME280;37304;52.216;6.874;2022-11-20T04:45:40;100920.91;;;-5.71;100.00
51229;BME280;37304;52.216;6.874;2022-11-20T04:50:41;100925.72;;;-5.75;100.00
51229;BME280;37304;52.216;6.874;2022-11-20T04:55:41;100923.66;;;-5.82;100.00
51229;BME280;37304;52.216;6.874;2022-11-20T05:00:42;100920.81;;;-5.72;100.00
51229;BME280;37304;52.216;6.874;2022-11-20T05:05:42;100912.50;;;-5.70;100.00
51229;BME280;37304;52.216;6.874;2022-11-20T05:10:42;100918.22;;;-5.74;100.00
51229;BME280;37304;52.216;6.874;2022-11-20T05:15:42;100919.16;;;-5.72;100.00
51229;BME280;37304;52.216;6.874;2022-11-20T05:20:43;100912.09;;;-5.77;100.00
51229;BME280;37304;52.216;6.874;2022-11-20T05:25:43;100909.38;;;-5.82;100.00
51229;BME280;37304;52.216;6.874;2022-11-20T05:30:43;100905.31;;;-5.78;100.00
51229;BME280;37304;52.216;6.874;2022-11-20T05:35:44;100908.50;;;-5.48;100.00
51229;BME280;37304;52.216;6.874;2022-11-20T05:40:44;100909.31;;;-5.49;100.00
51229;BME280;37304;52.216;6.874;2022-11-20T05:45:52;100896.88;;;-5.44;100.00
51229;BME280;37304;52.216;6.874;2022-11-20T05:50:53;100891.81;;;-5.44;100.00
51229;BME280;37304;52.216;6.874;2022-11-20T05:56:06;100893.84;;;-5.37;100.00
51229;BME280;37304;52.216;6.874;2022-11-20T06:01:12;100893.25;;;-5.31;100.00
51229;BME280;37304;52.216;6.874;2022-11-20T06:06:14;100900.16;;;-5.29;100.00
51229;BME280;37304;52.216;6.874;2022-11-20T06:11:15;100911.19;;;-5.28;100.00
51229;BME280;37304;52.216;6.874;2022-11-20T06:16:18;100921.53;;;-5.23;100.00
51229;BME280;37304;52.216;6.874;2022-11-20T06:21:20;100917.88;;;-5.29;100.00
51229;BME280;37304;52.216;6.874;2022-11-20T06:26:23;100907.19;;;-5.23;100.00
51229;BME280;37304;52.216;6.874;2022-11-20T06:31:24;100905.03;;;-5.15;100.00
51229;BME280;37304;52.216;6.874;2022-11-20T06:36:25;100902.69;;;-5.29;100.00
51229;BME280;37304;52.216;6.874;2022-11-20T06:41:25;100898.41;;;-5.30;100.00
51229;BME280;37304;52.216;6.874;2022-11-20T06:46:26;100912.81;;;-5.29;100.00
51229;BME280;37304;52.216;6.874;2022-11-20T06:51:26;100916.84;;;-5.32;100.00
51229;BME280;37304;52.216;6.874;2022-11-20T06:56:27;100911.88;;;-5.31;100.00
51229;BME280;37304;52.216;6.874;2022-11-20T07:01:27;100897.63;;;-5.29;100.00
51229;BME280;37304;52.216;6.874;2022-11-20T07:06:28;100906.03;;;-5.30;100.00
51229;BME280;37304;52.216;6.874;2022-11-20T07:11:28;100908.69;;;-5.27;100.00
51229;BME280;37304;52.216;6.874;2022-11-20T07:16:28;100907.91;;;-5.26;100.00
51229;BME280;37304;52.216;6.874;2022-11-20T07:21:29;100902.19;;;-5.21;100.00
51229;BME280;37304;52.216;6.874;2022-11-20T07:26:29;100910.53;;;-5.24;100.00
51229;BME280;37304;52.216;6.874;2022-11-20T07:31:29;100906.75;;;-5.14;100.00
51229;BME280;37304;52.216;6.874;2022-11-20T07:36:30;100908.00;;;-5.06;100.00
51229;BME280;37304;52.216;6.874;2022-11-20T07:41:30;100917.47;;;-5.02;100.00
51229;BME280;37304;52.216;6.874;2022-11-20T07:46:31;100916.34;;;-4.90;100.00
51229;BME280;37304;52.216;6.874;2022-11-20T07:51:31;100900.78;;;-4.80;100.00
51229;BME280;37304;52.216;6.874;2022-11-20T07:56:31;100896.84;;;-4.73;100.00
51229;BME280;37304;52.216;6.874;2022-11-20T08:01:32;100898.94;;;-4.64;100.00
51229;BME280;37304;52.216;6.874;2022-11-20T08:06:32;100896.03;;;-4.54;100.00
51229;BME280;37304;52.216;6.874;2022-11-20T08:11:32;100898.25;;;-4.42;100.00
51229;BME280;37304;52.216;6.874;2022-11-20T08:16:51;100888.75;;;-4.28;100.00
51229;BME280;37304;52.216;6.874;2022-11-20T08:21:52;100893.47;;;-4.16;100.00
51229;BME280;37304;52.216;6.874;2022-11-20T08:26:52;100897.47;;;-4.02;100.00
51229;BME280;37304;52.216;6.874;2022-11-20T08:31:52;100894.69;;;-3.88;100.00
51229;BME280;37304;52.216;6.874;2022-11-20T08:36:53;100887.66;;;-3.74;100.00
51229;BME280;37304;52.216;6.874;2022-11-20T08:41:53;100901.16;;;-3.56;100.00
51229;BME280;37304;52.216;6.874;2022-11-20T08:46:53;100901.09;;;-3.15;100.00
51229;BME280;37304;52.216;6.874;2022-11-20T08:51:54;100881.38;;;-0.18;100.00
51229;BME280;37304;52.216;6.874;2022-11-20T08:56:55;100878.41;;;-2.19;100.00
51229;BME280;37304;52.216;6.874;2022-11-20T09:01:55;100873.97;;;-1.76;100.00
51229;BME280;37304;52.216;6.874;2022-11-20T09:06:55;100870.63;;;-0.96;100.00
51229;BME280;37304;52.216;6.874;2022-11-20T09:11:56;100869.06;;;-0.33;100.00
51229;BME280;37304;52.216;6.874;2022-11-20T09:16:56;100865.69;;;0.01;100.00
51229;BME280;37304;52.216;6.874;2022-11-20T09:21:56;100835.31;;;1.19;100.00
51229;BME280;37304;52.216;6.874;2022-11-20T09:26:57;100840.75;;;2.75;100.00
51229;BME280;37304;52.216;6.874;2022-11-20T09:31:57;100835.88;;;1.05;100.00
51229;BME280;37304;52.216;6.874;2022-11-20T09:36:58;100835.28;;;2.04;100.00
51229;BME280;37304;52.216;6.874;2022-11-20T09:47:17;100829.16;;;3.67;100.00
51229;BME280;37304;52.216;6.874;2022-11-20T09:57:34;100828.31;;;3.68;100.00
51229;BME280;37304;52.216;6.874;2022-11-20T10:20:28;100808.28;;;1.33;100.00
51229;BME280;37304;52.216;6.874;2022-11-20T10:25:14;100801.19;;;1.20;100.00
51229;BME280;37304;52.216;6.874;2022-11-20T10:30:16;100793.72;;;0.89;100.00
51229;BME280;37304;52.216;6.874;2022-11-20T10:40:38;100780.66;;;0.78;100.00
51229;BME280;37304;52.216;6.874;2022-11-20T10:46:03;100779.75;;;0.75;100.00
51229;BME280;37304;52.216;6.874;2022-11-20T10:56:46;100781.34;;;0.71;100.00
51229;BME280;37304;52.216;6.874;2022-11-20T11:01:47;100765.44;;;0.84;100.00
51229;BME280;37304;52.216;6.874;2022-11-20T11:06:48;100757.38;;;1.06;100.00
51229;BME280;37304;52.216;6.874;2022-11-20T11:11:49;100758.34;;;1.11;100.00
51229;BME280;37304;52.216;6.874;2022-11-20T11:16:54;100752.19;;;1.01;100.00
51229;BME280;37304;52.216;6.874;2022-11-20T11:21:56;100746.50;;;1.16;100.00
51229;BME280;37304;52.216;6.874;2022-11-20T11:26:59;100742.72;;;1.40;100.00
51229;BME280;37304;52.216;6.874;2022-11-20T11:32:12;100740.22;;;1.44;100.00
51229;BME280;37304;52.216;6.874;2022-11-20T11:37:20;100721.28;;;1.35;100.00
51229;BME280;37304;52.216;6.874;2022-11-20T11:42:24;100733.53;;;1.53;100.00
51229;BME280;37304;52.216;6.874;2022-11-20T11:47:29;100720.41;;;1.82;100.00
51229;BME280;37304;52.216;6.874;2022-11-20T11:52:36;100712.88;;;1.93;100.00
51229;BME280;37304;52.216;6.874;2022-11-20T12:03:27;100686.91;;;2.25;100.00
51229;BME280;37304;52.216;6.874;2022-11-20T12:08:59;100683.69;;;2.37;100.00
51229;BME280;37304;52.216;6.874;2022-11-20T12:14:15;100682.25;;;2.59;100.00
51229;BME280;37304;52.216;6.874;2022-11-20T12:19:17;100676.34;;;2.65;100.00
51229;BME280;37304;52.216;6.874;2022-11-20T12:24:35;100657.59;;;2.69;100.00
51229;BME280;37304;52.216;6.874;2022-11-20T12:30:06;100652.28;;;2.55;100.00
51229;BME280;37304;52.216;6.874;2022-11-20T12:35:42;100660.00;;;2.56;100.00
51229;BME280;37304;52.216;6.874;2022-11-20T12:41:12;100657.44;;;2.56;100.00
51229;BME280;37304;52.216;6.874;2022-11-20T12:46:57;100642.84;;;2.52;100.00
51229;BME280;37304;52.216;6.874;2022-11-20T12:52:26;100634.34;;;2.56;100.00
51229;BME280;37304;52.216;6.874;2022-11-20T12:57:46;100629.16;;;2.50;100.00
51229;BME280;37304;52.216;6.874;2022-11-20T13:03:11;100612.84;;;2.46;100.00
51229;BME280;37304;52.216;6.874;2022-11-20T13:08:33;100594.84;;;2.42;100.00
51229;BME280;37304;52.216;6.874;2022-11-20T13:18:51;100572.44;;;2.30;100.00
51229;BME280;37304;52.216;6.874;2022-11-20T13:23:52;100555.31;;;2.27;100.00
51229;BME280;37304;52.216;6.874;2022-11-20T13:29:12;100545.94;;;2.28;100.00
51229;BME280;37304;52.216;6.874;2022-11-20T13:34:26;100538.25;;;2.28;100.00
51229;BME280;37304;52.216;6.874;2022-11-20T13:39:29;100539.09;;;2.27;100.00
51229;BME280;37304;52.216;6.874;2022-11-20T13:44:47;100546.75;;;2.25;100.00
51229;BME280;37304;52.216;6.874;2022-11-20T13:49:51;100542.38;;;2.16;100.00
51229;BME280;37304;52.216;6.874;2022-11-20T13:55:15;100543.25;;;2.20;100.00
51229;BME280;37304;52.216;6.874;2022-11-20T14:00:21;100538.97;;;2.19;100.00
51229;BME280;37304;52.216;6.874;2022-11-20T14:05:23;100531.31;;;2.21;100.00
51229;BME280;37304;52.216;6.874;2022-11-20T14:10:28;100531.28;;;2.19;100.00
51229;BME280;37304;52.216;6.874;2022-11-20T14:15:31;100510.78;;;2.19;100.00
51229;BME280;37304;52.216;6.874;2022-11-20T14:20:32;100503.88;;;2.13;100.00
51229;BME280;37304;52.216;6.874;2022-11-20T14:25:32;100486.81;;;2.17;100.00
51229;BME280;37304;52.216;6.874;2022-11-20T14:30:43;100485.84;;;2.07;100.00
51229;BME280;37304;52.216;6.874;2022-11-20T14:35:50;100482.38;;;2.02;100.00
51229;BME280;37304;52.216;6.874;2022-11-20T14:40:51;100461.88;;;2.03;100.00
51229;BME280;37304;52.216;6.874;2022-11-20T14:46:00;100463.56;;;2.01;100.00
51229;BME280;37304;52.216;6.874;2022-11-20T14:51:01;100454.09;;;1.96;100.00
51229;BME280;37304;52.216;6.874;2022-11-20T14:56:02;100447.19;;;1.92;100.00
51229;BME280;37304;52.216;6.874;2022-11-20T15:01:06;100432.75;;;1.97;100.00
51229;BME280;37304;52.216;6.874;2022-11-20T15:06:09;100425.81;;;1.89;100.00
51229;BME280;37304;52.216;6.874;2022-11-20T15:11:28;100416.41;;;1.87;100.00
51229;BME280;37304;52.216;6.874;2022-11-20T15:16:30;100405.22;;;1.80;100.00
51229;BME280;37304;52.216;6.874;2022-11-20T15:21:31;100383.03;;;1.82;100.00
51229;BME280;37304;52.216;6.874;2022-11-20T15:26:31;100345.47;;;1.84;100.00
51229;BME280;37304;52.216;6.874;2022-11-20T15:31:31;100366.81;;;1.82;100.00
51229;BME280;37304;52.216;6.874;2022-11-20T15:36:32;100354.00;;;1.82;100.00
51229;BME280;37304;52.216;6.874;2022-11-20T15:41:35;100357.41;;;1.82;100.00
51229;BME280;37304;52.216;6.874;2022-11-20T15:46:37;100362.50;;;1.78;100.00
51229;BME280;37304;52.216;6.874;2022-11-20T15:51:43;100364.16;;;1.74;100.00
51229;BME280;37304;52.216;6.874;2022-11-20T15:56:43;100361.63;;;1.77;100.00
51229;BME280;37304;52.216;6.874;2022-11-20T16:01:44;100371.09;;;1.83;100.00
51229;BME280;37304;52.216;6.874;2022-11-20T16:06:45;100371.91;;;1.79;100.00
51229;BME280;37304;52.216;6.874;2022-11-20T16:11:45;100363.38;;;1.80;100.00
51229;BME280;37304;52.216;6.874;2022-11-20T16:16:46;100347.13;;;1.78;100.00
51229;BME280;37304;52.216;6.874;2022-11-20T16:21:46;100337.66;;;1.72;100.00
51229;BME280;37304;52.216;6.874;2022-11-20T16:26:46;100321.41;;;1.70;100.00
51229;BME280;37304;52.216;6.874;2022-11-20T16:31:47;100306.06;;;1.71;100.00
51229;BME280;37304;52.216;6.874;2022-11-20T16:36:47;100295.69;;;1.62;100.00
51229;BME280;37304;52.216;6.874;2022-11-20T16:41:48;100304.25;;;1.63;100.00
51229;BME280;37304;52.216;6.874;2022-11-20T16:46:48;100302.59;;;1.66;100.00
51229;BME280;37304;52.216;6.874;2022-11-20T16:51:49;100286.28;;;1.61;100.00
51229;BME280;37304;52.216;6.874;2022-11-20T16:56:49;100287.91;;;1.53;100.00
51229;BME280;37304;52.216;6.874;2022-11-20T17:01:51;100281.94;;;1.54;100.00
51229;BME280;37304;52.216;6.874;2022-11-20T17:06:51;100279.28;;;1.43;100.00
51229;BME280;37304;52.216;6.874;2022-11-20T17:11:51;100283.53;;;1.41;100.00
51229;BME280;37304;52.216;6.874;2022-11-20T17:16:52;100285.19;;;1.37;100.00
51229;BME280;37304;52.216;6.874;2022-11-20T17:21:52;100290.28;;;1.36;100.00
51229;BME280;37304;52.216;6.874;2022-11-20T17:26:52;100303.81;;;1.27;100.00
51229;BME280;37304;52.216;6.874;2022-11-20T17:31:53;100304.63;;;1.23;100.00
51229;BME280;37304;52.216;6.874;2022-11-20T17:36:53;100295.09;;;1.09;100.00
51229;BME280;37304;52.216;6.874;2022-11-20T17:41:54;100282.97;;;0.99;100.00
51229;BME280;37304;52.216;6.874;2022-11-20T17:47:13;100273.31;;;0.78;100.00
51229;BME280;37304;52.216;6.874;2022-11-20T17:52:13;100258.78;;;0.75;100.00
51229;BME280;37304;52.216;6.874;2022-11-20T17:57:14;100259.56;;;0.71;100.00
51229;BME280;37304;52.216;6.874;2022-11-20T18:02:33;100258.72;;;0.70;100.00
51229;BME280;37304;52.216;6.874;2022-11-20T18:07:33;100243.19;;;0.56;100.00
51229;BME280;37304;52.216;6.874;2022-11-20T18:12:36;100232.94;;;0.56;100.00
51229;BME280;37304;52.216;6.874;2022-11-20T18:17:37;100239.75;;;0.54;100.00
51229;BME280;37304;52.216;6.874;2022-11-20T18:22:37;100235.44;;;0.50;100.00
51229;BME280;37304;52.216;6.874;2022-11-20T18:27:40;100229.28;;;0.39;100.00
51229;BME280;37304;52.216;6.874;2022-11-20T18:32:43;100224.97;;;0.36;100.00
51229;BME280;37304;52.216;6.874;2022-11-20T18:37:45;100212.88;;;0.24;100.00
51229;BME280;37304;52.216;6.874;2022-11-20T18:42:45;100215.38;;;0.21;100.00
51229;BME280;37304;52.216;6.874;2022-11-20T18:48:04;100207.63;;;0.15;100.00
51229;BME280;37304;52.216;6.874;2022-11-20T18:53:07;100202.56;;;0.18;100.00
51229;BME280;37304;52.216;6.874;2022-11-20T18:58:07;100186.16;;;0.02;100.00
51229;BME280;37304;52.216;6.874;2022-11-20T19:03:08;100181.94;;;0.06;100.00
51229;BME280;37304;52.216;6.874;2022-11-20T19:08:08;100181.03;;;0.04;100.00
51229;BME280;37304;52.216;6.874;2022-11-20T19:13:08;100180.13;;;-0.02;100.00
51229;BME280;37304;52.216;6.874;2022-11-20T19:18:09;100176.81;;;0.04;100.00
51229;BME280;37304;52.216;6.874;2022-11-20T19:23:09;100169.91;;;-0.02;100.00
51229;BME280;37304;52.216;6.874;2022-11-20T19:28:10;100165.59;;;-0.04;100.00
51229;BME280;37304;52.216;6.874;2022-11-20T19:33:10;100164.78;;;-0.02;100.00
51229;BME280;37304;52.216;6.874;2022-11-20T19:38:11;100157.03;;;-0.08;100.00
51229;BME280;37304;52.216;6.874;2022-11-20T19:43:11;100156.19;;;-0.07;100.00
51229;BME280;37304;52.216;6.874;2022-11-20T19:48:11;100150.19;;;-0.09;100.00
51229;BME280;37304;52.216;6.874;2022-11-20T19:53:12;100147.66;;;-0.09;100.00
51229;BME280;37304;52.216;6.874;2022-11-20T19:58:12;100137.47;;;-0.04;100.00
51229;BME280;37304;52.216;6.874;2022-11-20T20:03:13;100140.09;;;-0.01;100.00
51229;BME280;37304;52.216;6.874;2022-11-20T20:08:13;100142.50;;;-0.12;100.00
51229;BME280;37304;52.216;6.874;2022-11-20T20:13:14;100132.41;;;-0.01;100.00
51229;BME280;37304;52.216;6.874;2022-11-20T20:18:14;100140.78;;;-0.11;100.00
51229;BME280;37304;52.216;6.874;2022-11-20T20:23:15;100139.09;;;-0.11;100.00
51229;BME280;37304;52.216;6.874;2022-11-20T20:28:15;100137.44;;;-0.09;100.00
51229;BME280;37304;52.216;6.874;2022-11-20T20:33:15;100151.91;;;-0.08;100.00
51229;BME280;37304;52.216;6.874;2022-11-20T20:38:16;100153.56;;;-0.11;100.00
51229;BME280;37304;52.216;6.874;2022-11-20T20:43:16;100146.72;;;-0.14;100.00
51229;BME280;37304;52.216;6.874;2022-11-20T20:48:19;100152.66;;;-0.15;100.00
51229;BME280;37304;52.216;6.874;2022-11-20T20:53:21;100156.00;;;-0.18;100.00
51229;BME280;37304;52.216;6.874;2022-11-20T20:58:22;100156.94;;;-0.12;100.00
51229;BME280;37304;52.216;6.874;2022-11-20T21:03:22;100150.22;;;-0.07;100.00
51229;BME280;37304;52.216;6.874;2022-11-20T21:08:23;100150.22;;;-0.07;100.00
51229;BME280;37304;52.216;6.874;2022-11-20T21:13:24;100151.97;;;-0.05;100.00
51229;BME280;37304;52.216;6.874;2022-11-20T21:18:25;100156.25;;;-0.02;100.00
51229;BME280;37304;52.216;6.874;2022-11-20T21:23:26;100157.22;;;0.03;100.00
51229;BME280;37304;52.216;6.874;2022-11-20T21:28:27;100160.59;;;0.02;100.00
51229;BME280;37304;52.216;6.874;2022-11-20T21:33:27;100157.97;;;-0.03;100.00
51229;BME280;37304;52.216;6.874;2022-11-20T21:38:28;100162.38;;;0.08;100.00
51229;BME280;37304;52.216;6.874;2022-11-20T21:43:29;100174.34;;;0.10;100.00
51229;BME280;37304;52.216;6.874;2022-11-20T21:48:31;100175.97;;;0.07;100.00
51229;BME280;37304;52.216;6.874;2022-11-20T21:53:32;100176.88;;;0.09;100.00
51229;BME280;37304;52.216;6.874;2022-11-20T21:58:33;100190.56;;;0.14;100.00
51229;BME280;37304;52.216;6.874;2022-11-20T22:03:35;100201.72;;;0.19;100.00
51229;BME280;37304;52.216;6.874;2022-11-20T22:08:36;100197.34;;;0.12;100.00
51229;BME280;37304;52.216;6.874;2022-11-20T22:13:37;100205.09;;;0.17;100.00
51229;BME280;37304;52.216;6.874;2022-11-20T22:18:57;100212.69;;;0.12;100.00
51229;BME280;37304;52.216;6.874;2022-11-20T22:23:58;100213.59;;;0.17;100.00
51229;BME280;37304;52.216;6.874;2022-11-20T22:28:58;100225.59;;;0.21;100.00
51229;BME280;37304;52.216;6.874;2022-11-20T22:34:00;100221.22;;;0.14;100.00
51229;BME280;37304;52.216;6.874;2022-11-20T22:39:02;100227.31;;;0.21;100.00
51229;BME280;37304;52.216;6.874;2022-11-20T22:44:05;100224.63;;;0.13;100.00
51229;BME280;37304;52.216;6.874;2022-11-20T22:49:06;100239.94;;;0.11;100.00
51229;BME280;37304;52.216;6.874;2022-11-20T22:54:10;100253.63;;;0.15;100.00
51229;BME280;37304;52.216;6.874;2022-11-20T22:59:11;100256.94;;;0.11;100.00
51229;BME280;37304;52.216;6.874;2022-11-20T23:04:11;100256.34;;;0.26;100.00
51229;BME280;37304;52.216;6.874;2022-11-20T23:09:12;100261.47;;;0.26;100.00
51229;BME280;37304;52.216;6.874;2022-11-20T23:14:14;100263.88;;;0.18;100.00
51229;BME280;37304;52.216;6.874;2022-11-20T23:19:14;100253.84;;;0.29;100.00
51229;BME280;37304;52.216;6.874;2022-11-20T23:24:15;100251.38;;;0.35;100.00
51229;BME280;37304;52.216;6.874;2022-11-20T23:29:15;100262.34;;;0.28;100.00
51229;BME280;37304;52.216;6.874;2022-11-20T23:34:15;100260.81;;;0.38;100.00
51229;BME280;37304;52.216;6.874;2022-11-20T23:39:16;100264.06;;;0.29;100.00
51229;BME280;37304;52.216;6.874;2022-11-20T23:44:16;100267.50;;;0.33;100.00
51229;BME280;37304;52.216;6.874;2022-11-20T23:49:16;100285.63;;;0.45;100.00
51229;BME280;37304;52.216;6.874;2022-11-20T23:54:17;100282.22;;;0.46;100.00
51229;BME280;37304;52.216;6.874;2022-11-20T23:59:17;100286.56;;;0.50;100.00
